Terminal Aerodrome Forecast
Issued by NWS Cleveland, OH

Home | Current Version | Previous Version | Text Only | Print | Product List | Glossary On
Versions: 1 2 3 4 5 6 7 8 9 10 11 12 13 14 15 16 17 18 19 20 21
211
FTUS41 KCLE 251732
TAFERI
TAF
KERI 251732Z 2518/2618 04010KT P6SM SKC
     FM260200 14010KT P6SM SCT070
     FM261000 15015G25KT P6SM BKN070
     FM261500 18010G20KT P6SM SCT040 BKN070=

USA.gov is the U.S. government's official web portal to all federal, state and local government web resources and services.